Terminal Aerodrome Forecast
Issued by NWS

Home | Current Version | Previous Version | Text Only | Print | Product List | Glossary On
Versions: 1 2 3 4 5 6 7 8 9 10 11 12 13 14 15 16 17
935
FTUS41 KBTV 091735
TAFMPV
TAF
KMPV 091735Z 0918/1018 VRB06KT P6SM VCSH BKN035 OVC045
     FM092000 00000KT P6SM BKN045
     FM100800 00000KT P6SM OVC030
     FM101400 00000KT P6SM VCSH OVC020
     FM101700 00000KT 2SM -SN BR OVC020=

USA.gov is the U.S. government's official web portal to all federal, state and local government web resources and services.